Time;durP1;ratioP1;P1;durP2;ratioP2;P2;SDS_P1;SDS_P2;PMS_P1;PMS_P2;Temp;Humidity;BMP_temperature;BMP_pressure;BME280_temperature;BME280_humidity;BME280_pressure;Samples;Min_cycle;Max_cycle;Signal;HPM_P1;HPM_P2
2023/11/16 00:02:07;;;;;;;7.20;4.50;;;;;;;9.15;81.42;100586.85;107597;1255;110169;-60
2023/11/16 00:04:36;;;;;;;11.50;4.90;;;;;;;9.16;81.36;100592.64;107687;1251;109926;-61
2023/11/16 00:07:06;;;;;;;8.60;4.90;;;;;;;9.17;81.25;100589.71;107560;1253;106992;-61
2023/11/16 00:09:35;;;;;;;8.60;4.70;;;;;;;9.17;81.15;100592.20;107663;1252;97806;-61
2023/11/16 00:12:04;;;;;;;9.20;4.30;;;;;;;9.15;81.04;100595.41;107639;1252;97818;-62
2023/11/16 00:14:34;;;;;;;8.30;4.50;;;;;;;9.11;80.83;100600.08;107585;1254;112060;-62
2023/11/16 00:17:03;;;;;;;8.60;4.50;;;;;;;9.07;80.88;100604.84;107569;1252;108865;-62
2023/11/16 00:19:35;;;;;;;9.10;4.80;;;;;;;9.03;80.88;100606.79;107559;1251;108502;-61
2023/11/16 00:22:03;;;;;;;7.70;4.90;;;;;;;9.00;81.03;100607.39;107641;1252;97815;-61
2023/11/16 00:24:32;;;;;;;9.00;4.60;;;;;;;8.98;80.86;100609.92;107537;1255;98467;-61
2023/11/16 00:27:00;;;;;;;8.40;4.60;;;;;;;8.98;81.03;100611.38;107566;1253;112663;-60
2023/11/16 00:29:29;;;;;;;10.40;5.20;;;;;;;8.97;80.96;100614.11;107638;1251;109829;-61
2023/11/16 00:31:58;;;;;;;8.00;4.10;;;;;;;8.95;81.06;100614.25;107593;1254;107722;-62
2023/11/16 00:34:27;;;;;;;8.00;4.80;;;;;;;8.99;81.11;100619.33;107509;1254;97836;-61
2023/11/16 00:36:55;;;;;;;12.70;5.00;;;;;;;9.01;81.11;100624.17;107529;1252;97936;-61
2023/11/16 00:39:24;;;;;;;8.30;4.50;;;;;;;8.99;81.04;100631.63;107673;1253;111067;-61
2023/11/16 00:41:53;;;;;;;11.30;4.50;;;;;;;8.99;81.17;100633.43;107527;1253;108478;-61
2023/11/16 00:44:22;;;;;;;6.70;4.10;;;;;;;9.01;81.08;100636.33;107548;1252;107778;-61
2023/11/16 00:46:51;;;;;;;8.10;4.60;;;;;;;9.01;80.89;100636.46;107614;1255;97841;-62
2023/11/16 00:49:21;;;;;;;14.90;4.90;;;;;;;9.02;80.95;100639.96;107585;1256;97708;-62
2023/11/16 00:51:50;;;;;;;10.60;5.60;;;;;;;9.02;81.06;100640.11;107582;1254;111804;-61
2023/11/16 00:54:22;;;;;;;8.00;4.10;;;;;;;9.01;80.95;100646.83;107576;1253;109711;-62
2023/11/16 00:56:51;;;;;;;5.70;3.80;;;;;;;9.02;80.80;100646.41;107545;1253;108179;-62
2023/11/16 00:59:20;;;;;;;7.30;4.30;;;;;;;9.02;80.80;100654.84;107567;1253;97835;-60
2023/11/16 01:01:49;;;;;;;12.20;4.10;;;;;;;9.02;80.79;100656.77;107646;1253;98881;-61
2023/11/16 01:04:19;;;;;;;6.50;4.10;;;;;;;9.03;80.65;100653.69;107600;1252;111345;-60
2023/11/16 01:06:47;;;;;;;7.00;4.20;;;;;;;9.06;80.87;100656.42;107554;1255;110276;-61
2023/11/16 01:09:16;;;;;;;6.50;4.10;;;;;;;9.12;81.11;100659.01;107616;1252;108771;-61
2023/11/16 01:11:45;;;;;;;8.20;4.70;;;;;;;9.16;81.06;100661.19;107684;1252;97858;-61
2023/11/16 01:14:17;;;;;;;7.40;4.70;;;;;;;9.17;80.84;100659.27;107466;1253;97727;-62
2023/11/16 01:16:46;;;;;;;7.20;4.20;;;;;;;9.16;80.86;100663.64;107583;1251;111926;-61
2023/11/16 01:19:21;;;;;;;7.60;4.50;;;;;;;9.18;80.82;100665.09;107592;1251;109982;-61
2023/11/16 01:21:57;;;;;;;8.00;4.10;;;;;;;9.21;81.10;100663.25;107547;1253;108447;-62
2023/11/16 01:24:28;;;;;;;11.20;4.70;;;;;;;9.22;81.13;100659.57;107533;1253;97909;-62
2023/11/16 01:27:13;;;;;;;13.10;4.70;;;;;;;9.23;81.23;100661.63;107511;1253;98381;-61
2023/11/16 01:29:45;;;;;;;13.90;4.10;;;;;;;9.23;81.27;100668.45;107589;1253;112116;-60
2023/11/16 01:32:14;;;;;;;7.10;3.40;;;;;;;9.22;81.08;100667.84;107571;1253;108813;-61
2023/11/16 01:34:45;;;;;;;6.10;3.50;;;;;;;9.18;80.68;100668.14;107572;1252;106353;-61
2023/11/16 01:37:13;;;;;;;4.80;2.80;;;;;;;9.12;80.14;100670.82;107649;1252;97945;-62
2023/11/16 01:39:43;;;;;;;3.20;2.70;;;;;;;9.00;79.45;100673.63;107531;1253;97922;-62
2023/11/16 01:42:12;;;;;;;5.50;2.70;;;;;;;8.88;79.28;100679.57;107463;1253;111853;-62
2023/11/16 01:44:41;;;;;;;3.90;2.40;;;;;;;8.82;79.29;100679.72;107605;1254;109234;-61
2023/11/16 01:47:14;;;;;;;4.50;2.50;;;;;;;8.78;79.20;100685.80;107547;1254;108278;-61
2023/11/16 01:49:43;;;;;;;3.60;2.20;;;;;;;8.75;79.21;100681.90;107557;1253;97836;-61
2023/11/16 01:52:14;;;;;;;4.30;2.40;;;;;;;8.73;79.15;100685.65;107561;1252;97999;-61
2023/11/16 01:54:43;;;;;;;3.30;2.00;;;;;;;8.74;79.14;100690.34;107642;1251;112131;-61
2023/11/16 01:57:12;;;;;;;2.10;1.50;;;;;;;8.73;78.94;100690.08;107624;1251;109739;-62
2023/11/16 01:59:41;;;;;;;4.30;2.20;;;;;;;8.67;78.54;100687.00;107462;1253;107338;-60
2023/11/16 02:02:11;;;;;;;4.50;2.10;;;;;;;8.65;78.43;100687.17;107495;1253;97848;-61
2023/11/16 02:04:40;;;;;;;2.30;1.60;;;;;;;8.64;78.27;100686.55;107535;1253;97833;-61
2023/11/16 02:07:08;;;;;;;2.30;1.60;;;;;;;8.63;77.92;100689.13;107573;1253;111841;-61
2023/11/16 02:09:38;;;;;;;3.70;1.90;;;;;;;8.61;77.82;100689.63;107514;1253;109584;-61
2023/11/16 02:12:08;;;;;;;3.30;1.60;;;;;;;8.63;77.90;100689.69;107531;1256;105963;-61
2023/11/16 02:14:36;;;;;;;2.30;1.70;;;;;;;8.68;78.03;100691.63;107490;1256;98028;-60
2023/11/16 02:17:04;;;;;;;3.00;1.60;;;;;;;8.71;77.90;100697.10;107448;1252;97726;-62
2023/11/16 02:19:33;;;;;;;2.40;1.70;;;;;;;8.70;77.47;100697.86;107504;1253;110901;-61
2023/11/16 02:22:02;;;;;;;2.60;1.70;;;;;;;8.70;77.50;100701.81;107433;1252;109065;-60
2023/11/16 02:24:31;;;;;;;6.80;1.70;;;;;;;8.67;77.28;100700.95;107609;1253;106629;-60
2023/11/16 02:27:00;;;;;;;6.30;2.00;;;;;;;8.68;77.28;100706.28;107516;1253;97849;-62
2023/11/16 02:29:28;;;;;;;3.10;2.00;;;;;;;8.70;77.20;100709.50;107520;1253;97855;-62
2023/11/16 02:31:56;;;;;;;3.10;1.80;;;;;;;8.73;77.25;100711.17;107445;1252;110808;-62
2023/11/16 02:34:24;;;;;;;2.50;2.20;;;;;;;8.77;77.28;100717.84;107606;1251;110816;-61
2023/11/16 02:36:53;;;;;;;4.00;1.90;;;;;;;8.77;76.92;100727.36;107547;1254;107699;-60
2023/11/16 02:39:23;;;;;;;3.50;2.20;;;;;;;8.76;76.74;100726.27;107596;1251;97711;-60
2023/11/16 02:41:51;;;;;;;2.70;1.80;;;;;;;8.78;76.89;100727.79;107504;1254;97893;-61
2023/11/16 02:44:19;;;;;;;4.50;1.80;;;;;;;8.83;77.04;100727.21;107495;1258;112243;-61
2023/11/16 02:46:48;;;;;;;3.10;2.20;;;;;;;8.89;77.32;100728.85;107546;1253;109730;-61
2023/11/16 02:49:17;;;;;;;4.30;2.40;;;;;;;8.97;77.62;100725.17;107564;1254;108891;-61
2023/11/16 02:51:46;;;;;;;3.90;2.10;;;;;;;9.02;77.56;100723.30;107596;1252;97911;-60
2023/11/16 02:54:15;;;;;;;3.60;2.40;;;;;;;9.03;77.26;100722.57;107545;1255;97781;-61
2023/11/16 02:56:45;;;;;;;6.00;1.80;;;;;;;8.96;76.87;100722.41;107582;1253;111320;-61
2023/11/16 02:59:14;;;;;;;2.80;2.00;;;;;;;8.87;76.83;100721.91;107563;1251;109694;-61
2023/11/16 03:01:42;;;;;;;2.60;2.00;;;;;;;8.76;76.96;100726.52;107545;1253;107676;-62
2023/11/16 03:04:12;;;;;;;2.50;1.80;;;;;;;8.70;77.18;100724.30;107448;1253;97847;-60
2023/11/16 03:06:41;;;;;;;2.70;1.90;;;;;;;8.63;77.22;100726.70;107571;1252;97742;-62
2023/11/16 03:09:16;;;;;;;3.10;1.90;;;;;;;8.58;77.40;100727.58;107588;1253;111918;-61
2023/11/16 03:11:44;;;;;;;2.10;1.80;;;;;;;8.55;77.51;100728.73;107573;1256;109925;-62
2023/11/16 03:14:13;;;;;;;5.00;2.00;;;;;;;8.55;77.52;100730.23;107524;1253;107098;-61
2023/11/16 03:16:49;;;;;;;3.70;2.10;;;;;;;8.57;77.77;100731.65;107562;1253;97851;-63
2023/11/16 03:19:17;;;;;;;5.30;2.30;;;;;;;8.64;78.19;100729.25;107534;1253;98367;-61
2023/11/16 03:21:45;;;;;;;4.30;2.40;;;;;;;8.72;78.28;100731.65;107552;1253;111146;-61
2023/11/16 03:24:14;;;;;;;5.90;2.70;;;;;;;8.80;78.43;100728.77;107624;1251;109891;-61
2023/11/16 03:26:44;;;;;;;4.80;2.00;;;;;;;8.85;78.34;100727.06;107568;1251;108288;-61
2023/11/16 03:29:12;;;;;;;2.60;2.10;;;;;;;8.89;78.34;100727.47;107556;1251;97893;-61
2023/11/16 03:31:41;;;;;;;3.60;2.30;;;;;;;8.91;78.31;100726.75;107510;1251;98376;-61
2023/11/16 03:34:10;;;;;;;4.40;2.50;;;;;;;8.92;78.25;100729.63;107566;1253;111712;-61
2023/11/16 03:36:39;;;;;;;3.90;2.30;;;;;;;8.95;78.44;100735.52;107608;1252;109367;-60
2023/11/16 03:39:07;;;;;;;2.70;2.40;;;;;;;8.97;78.64;100740.36;107513;1253;108182;-62
2023/11/16 03:41:36;;;;;;;2.80;2.50;;;;;;;9.00;78.57;100743.56;107549;1253;97997;-62
2023/11/16 03:44:05;;;;;;;2.90;2.40;;;;;;;8.98;78.56;100743.34;107583;1253;97827;-62
2023/11/16 03:46:34;;;;;;;6.70;2.70;;;;;;;8.97;78.51;100746.83;107491;1253;112293;-62
2023/11/16 03:49:02;;;;;;;3.40;2.40;;;;;;;8.97;78.55;100745.76;107558;1254;109799;-62
2023/11/16 03:51:31;;;;;;;3.50;2.30;;;;;;;8.97;78.75;100747.73;107562;1256;107840;-62
2023/11/16 03:53:59;;;;;;;4.00;2.30;;;;;;;8.96;78.65;100752.84;107582;1253;97916;-62
2023/11/16 03:56:28;;;;;;;3.30;2.30;;;;;;;8.95;78.86;100752.02;107568;1256;97735;-61
2023/11/16 03:58:56;;;;;;;4.50;2.50;;;;;;;8.94;78.88;100755.79;107617;1251;111623;-61
2023/11/16 04:01:25;;;;;;;4.30;2.20;;;;;;;8.89;78.30;100754.09;107578;1251;108840;-62
2023/11/16 04:03:53;;;;;;;10.20;4.00;;;;;;;8.80;78.19;100754.98;107508;1257;107517;-61
2023/11/16 04:06:24;;;;;;;8.40;3.10;;;;;;;8.75;78.43;100757.54;107507;1253;97828;-61
2023/11/16 04:08:53;;;;;;;5.20;3.70;;;;;;;8.70;78.50;100752.77;107510;1253;98531;-59
2023/11/16 04:11:23;;;;;;;9.30;3.10;;;;;;;8.65;78.71;100758.86;107535;1251;111460;-61
2023/11/16 04:13:51;;;;;;;13.10;8.30;;;;;;;8.59;78.63;100761.35;107630;1251;110069;-63
2023/11/16 04:16:21;;;;;;;7.80;4.40;;;;;;;8.50;78.67;100763.45;107606;1253;108519;-61
2023/11/16 04:18:51;;;;;;;11.50;6.50;;;;;;;8.41;78.62;100768.80;107587;1251;97819;-61
2023/11/16 04:21:24;;;;;;;4.00;2.30;;;;;;;8.31;78.50;100769.56;107526;1253;97953;-60
2023/11/16 04:23:56;;;;;;;4.60;2.30;;;;;;;8.20;77.85;100775.42;107553;1254;111736;-61
2023/11/16 04:26:31;;;;;;;4.10;2.40;;;;;;;8.16;78.07;100776.27;107507;1253;108758;-62
2023/11/16 04:29:04;;;;;;;3.30;2.40;;;;;;;8.11;77.86;100789.91;107430;1257;106920;-62
2023/11/16 04:31:33;;;;;;;;;;;;;;;8.04;77.49;100793.31;107553;1254;97931;-61
2023/11/16 04:34:02;;;;;;;3.90;2.30;;;;;;;7.97;77.23;100805.42;107607;1253;98438;-60
2023/11/16 04:36:30;;;;;;;4.70;2.00;;;;;;;7.94;77.17;100810.45;107560;1253;112138;-61
2023/11/16 04:39:00;;;;;;;4.50;2.70;;;;;;;7.93;76.93;100817.17;107452;1253;108932;-61
2023/11/16 04:41:31;;;;;;;3.10;1.60;;;;;;;7.89;76.67;100820.53;107531;1253;107836;-60
2023/11/16 04:44:01;;;;;;;2.80;1.60;;;;;;;7.85;76.25;100818.32;107556;1255;97848;-61
2023/11/16 04:46:30;;;;;;;1.90;1.80;;;;;;;7.81;75.60;100824.36;107567;1253;98466;-60
2023/11/16 04:49:01;;;;;;;3.60;1.80;;;;;;;7.79;75.90;100831.24;107629;1251;113283;-61
2023/11/16 04:51:30;;;;;;;1.60;1.30;;;;;;;7.79;75.71;100838.77;107624;1251;109465;-60
2023/11/16 04:53:58;;;;;;;2.30;1.70;;;;;;;7.77;75.81;100843.75;107578;1253;107817;-60
2023/11/16 04:56:27;;;;;;;2.20;1.70;;;;;;;7.77;76.01;100844.96;107537;1255;97875;-60
2023/11/16 04:58:55;;;;;;;5.40;2.00;;;;;;;7.76;75.94;100845.08;107598;1253;98377;-62
2023/11/16 05:01:24;;;;;;;4.00;1.70;;;;;;;7.72;75.75;100846.11;107546;1253;111451;-61
2023/11/16 05:03:52;;;;;;;4.50;3.40;;;;;;;7.66;74.96;100851.35;107647;1251;108556;-61
2023/11/16 05:06:21;;;;;;;14.70;6.20;;;;;;;7.57;74.58;100855.05;107523;1251;108383;-61
2023/11/16 05:08:49;;;;;;;6.00;2.20;;;;;;;7.50;74.40;100857.02;107565;1254;97974;-62
2023/11/16 05:11:24;;;;;;;3.50;2.10;;;;;;;7.39;74.20;100857.45;107579;1253;97867;-62
2023/11/16 05:13:53;;;;;;;5.20;2.10;;;;;;;7.32;74.41;100867.98;107612;1251;112305;-62
2023/11/16 05:16:26;;;;;;;2.90;1.90;;;;;;;7.24;74.39;100874.23;107514;1253;110237;-61
2023/11/16 05:18:56;;;;;;;3.90;1.80;;;;;;;7.17;74.42;100880.63;107560;1251;107530;-62
2023/11/16 05:21:25;;;;;;;3.20;1.70;;;;;;;7.11;74.53;100886.73;107606;1253;97937;-62
2023/11/16 05:23:54;;;;;;;3.00;2.00;;;;;;;7.07;74.51;100886.70;107618;1251;97723;-62
2023/11/16 05:26:22;;;;;;;5.20;2.30;;;;;;;7.08;74.88;100892.69;107575;1251;110996;-62
2023/11/16 05:28:50;;;;;;;3.10;2.00;;;;;;;7.10;74.76;100901.31;107579;1255;109042;-61
2023/11/16 05:31:18;;;;;;;2.20;1.70;;;;;;;7.06;74.42;100908.73;107574;1253;108715;-62
2023/11/16 05:33:47;;;;;;;3.20;2.00;;;;;;;7.00;74.52;100909.98;107506;1256;97924;-61
2023/11/16 05:36:16;;;;;;;3.10;2.40;;;;;;;6.98;74.72;100909.98;107544;1254;97733;-63
2023/11/16 05:38:44;;;;;;;3.00;1.90;;;;;;;6.99;74.94;100915.59;107600;1251;112228;-61
2023/11/16 05:41:13;;;;;;;5.40;1.80;;;;;;;7.01;74.53;100923.50;107623;1251;109890;-61
2023/11/16 05:43:42;;;;;;;2.40;1.90;;;;;;;7.02;74.30;100924.66;107540;1255;108739;-62
2023/11/16 05:46:11;;;;;;;2.20;1.60;;;;;;;7.04;74.36;100930.58;107541;1255;97720;-62
2023/11/16 05:48:41;;;;;;;5.90;2.10;;;;;;;7.06;74.13;100938.48;107617;1252;97822;-61
2023/11/16 05:51:10;;;;;;;4.20;2.00;;;;;;;7.07;74.24;100951.45;107663;1251;111843;-62
2023/11/16 05:53:39;;;;;;;4.10;2.20;;;;;;;7.10;74.22;100954.59;107634;1257;108538;-62
2023/11/16 05:56:08;;;;;;;5.40;1.80;;;;;;;7.13;74.22;100964.75;107586;1251;107851;-61
2023/11/16 05:58:36;;;;;;;4.50;2.10;;;;;;;7.17;74.22;100971.41;107618;1251;97720;-59
2023/11/16 06:01:05;;;;;;;3.80;2.20;;;;;;;7.24;72.85;100974.64;107600;1251;97823;-60
2023/11/16 06:03:34;;;;;;;3.10;2.20;;;;;;;7.31;71.44;100977.38;107585;1256;112341;-61
2023/11/16 06:06:03;;;;;;;2.20;1.90;;;;;;;7.36;71.58;100978.07;107617;1254;109571;-61
2023/11/16 06:08:33;;;;;;;4.00;3.00;;;;;;;7.41;70.62;100982.23;107594;1254;107663;-60
2023/11/16 06:11:02;;;;;;;3.10;2.30;;;;;;;7.44;70.48;100975.35;107572;1251;97855;-61
2023/11/16 06:13:34;;;;;;;3.80;2.30;;;;;;;7.51;69.93;100973.61;107610;1255;97820;-61
2023/11/16 06:16:03;;;;;;;2.40;2.00;;;;;;;7.55;69.61;100982.45;107628;1254;110660;-61
2023/11/16 06:18:31;;;;;;;3.00;2.50;;;;;;;7.55;68.55;100982.80;107564;1256;110049;-61
2023/11/16 06:20:59;;;;;;;3.20;2.00;;;;;;;7.57;68.22;100987.71;107555;1255;107538;-61
2023/11/16 06:23:28;;;;;;;5.10;2.50;;;;;;;7.55;68.05;100993.36;107503;1254;97726;-58
2023/11/16 06:25:57;;;;;;;2.70;2.20;;;;;;;7.52;67.77;100999.78;107627;1254;97749;-59
2023/11/16 06:28:25;;;;;;;2.80;2.00;;;;;;;7.53;67.18;101005.61;107584;1256;112410;-60
2023/11/16 06:30:53;;;;;;;4.80;2.20;;;;;;;7.54;66.56;101006.47;107545;1254;108770;-60
2023/11/16 06:33:22;;;;;;;4.30;1.70;;;;;;;7.58;66.26;101005.28;107552;1255;108487;-59
2023/11/16 06:35:50;;;;;;;3.60;2.10;;;;;;;7.62;66.32;101010.33;107611;1251;98504;-60
2023/11/16 06:38:19;;;;;;;3.40;2.10;;;;;;;7.63;65.65;101011.14;107595;1254;97732;-58
2023/11/16 06:40:48;;;;;;;4.40;2.40;;;;;;;7.67;66.22;101016.23;107516;1252;111219;-59
2023/11/16 06:43:16;;;;;;;5.10;3.00;;;;;;;7.71;66.30;101016.12;107567;1251;109299;-60
2023/11/16 06:45:44;;;;;;;2.60;1.70;;;;;;;7.72;65.91;101021.25;107568;1251;108318;-59
2023/11/16 06:48:13;;;;;;;3.90;2.40;;;;;;;7.67;66.03;101024.77;107592;1251;97948;-60
2023/11/16 06:50:42;;;;;;;4.40;2.30;;;;;;;7.63;65.97;101026.84;107551;1251;98393;-57
2023/11/16 06:53:11;;;;;;;4.40;2.50;;;;;;;7.59;66.28;101033.36;107592;1251;111401;-60
2023/11/16 06:55:46;;;;;;;6.90;2.40;;;;;;;7.60;66.45;101035.80;107549;1255;108148;-61
2023/11/16 06:58:14;;;;;;;6.00;2.20;;;;;;;7.59;66.26;101041.94;107594;1251;108336;-59
2023/11/16 07:00:44;;;;;;;4.50;2.80;;;;;;;7.58;66.41;101046.11;107580;1251;97935;-60
2023/11/16 07:03:12;;;;;;;2.90;2.30;;;;;;;7.59;66.20;101049.31;107649;1251;98379;-60
2023/11/16 07:05:41;;;;;;;5.00;2.40;;;;;;;7.64;66.59;101050.36;107607;1254;110930;-60
2023/11/16 07:08:09;;;;;;;5.10;2.30;;;;;;;7.69;66.44;101054.28;107586;1254;110079;-59
2023/11/16 07:10:37;;;;;;;5.50;2.40;;;;;;;7.71;66.09;101050.23;107447;1254;107454;-59
2023/11/16 07:13:06;;;;;;;3.10;2.00;;;;;;;7.73;65.70;101049.33;107588;1256;97939;-60
2023/11/16 07:15:35;;;;;;;4.50;2.40;;;;;;;7.79;65.56;101052.98;107508;1253;97805;-59
2023/11/16 07:18:04;;;;;;;3.90;2.00;;;;;;;7.87;65.43;101059.23;107567;1255;111062;-59
2023/11/16 07:20:35;;;;;;;2.30;1.80;;;;;;;7.94;64.84;101063.22;107515;1255;109071;-60
2023/11/16 07:23:04;;;;;;;12.90;2.40;;;;;;;7.97;64.28;101064.20;107568;1251;106339;-60
2023/11/16 07:25:32;;;;;;;7.70;2.50;;;;;;;8.02;64.03;101072.31;107606;1253;97813;-60
2023/11/16 07:28:01;;;;;;;4.60;2.40;;;;;;;8.02;63.35;101069.97;107519;1257;97973;-59
2023/11/16 07:30:30;;;;;;;6.70;2.40;;;;;;;7.95;63.23;101070.97;107576;1251;112142;-59
2023/11/16 07:32:59;;;;;;;6.80;2.80;;;;;;;7.93;62.88;101070.77;107634;1251;109060;-59
2023/11/16 07:35:33;;;;;;;8.10;2.80;;;;;;;7.90;63.20;101070.81;107589;1251;108236;-59
2023/11/16 07:38:04;;;;;;;6.10;2.40;;;;;;;7.92;63.30;101071.89;107606;1251;97836;-57
2023/11/16 07:40:32;;;;;;;5.40;2.90;;;;;;;7.92;62.77;101084.95;107603;1251;98357;-60
2023/11/16 07:43:01;;;;;;;8.90;2.80;;;;;;;7.82;62.08;101081.91;107479;1254;111570;-59
2023/11/16 07:45:29;;;;;;;6.90;3.00;;;;;;;7.85;62.76;101080.31;107644;1251;110153;-60
2023/11/16 07:47:59;;;;;;;6.30;2.70;;;;;;;7.91;62.83;101079.86;107590;1251;108607;-60
2023/11/16 07:50:31;;;;;;;6.20;2.40;;;;;;;7.93;62.84;101082.04;107591;1253;97913;-60
2023/11/16 07:53:00;;;;;;;4.20;3.10;;;;;;;8.01;62.89;101087.70;107586;1254;97804;-59
2023/11/16 07:55:30;;;;;;;4.70;2.30;;;;;;;8.10;61.92;101090.41;107594;1251;111021;-61
2023/11/16 07:57:58;;;;;;;4.30;3.00;;;;;;;8.18;62.34;101096.67;107635;1251;108811;-62
2023/11/16 08:00:30;;;;;;;3.30;2.50;;;;;;;8.30;62.10;101095.79;107546;1251;107576;-59
2023/11/16 08:05:48;;;;;;;5.00;2.90;;;;;;;8.35;61.27;101112.00;107700;1251;97848;-59
2023/11/16 08:08:20;;;;;;;5.00;2.90;;;;;;;8.27;60.72;101121.03;107605;1251;111655;-60
2023/11/16 08:10:49;;;;;;;3.90;2.90;;;;;;;8.23;61.68;101122.54;107556;1253;110040;-60
2023/11/16 08:13:18;;;;;;;4.20;3.10;;;;;;;8.23;61.47;101129.86;107651;1254;107172;-60
2023/11/16 08:15:52;;;;;;;9.40;2.90;;;;;;;8.23;60.91;101134.15;107555;1254;97834;-59
2023/11/16 08:18:24;;;;;;;5.10;3.60;;;;;;;8.31;61.26;101129.69;107606;1254;98375;-61
2023/11/16 08:20:53;;;;;;;7.40;3.10;;;;;;;8.33;60.54;101129.70;107568;1254;110702;-61
2023/11/16 08:23:22;;;;;;;4.20;2.80;;;;;;;8.39;60.79;101132.14;107567;1251;110088;-60
2023/11/16 08:25:53;;;;;;;7.00;3.80;;;;;;;8.37;60.28;101138.52;107620;1257;107938;-59
2023/11/16 08:28:22;;;;;;;7.50;3.90;;;;;;;8.34;60.64;101135.70;107577;1251;97900;-59
2023/11/16 08:30:53;;;;;;;5.80;3.50;;;;;;;8.37;60.78;101139.25;107632;1251;97829;-61
2023/11/16 08:33:21;;;;;;;9.90;3.60;;;;;;;8.36;60.05;101142.54;107631;1254;112135;-60
2023/11/16 08:35:50;;;;;;;2.90;2.40;;;;;;;8.49;60.06;101142.27;107631;1251;108999;-60
2023/11/16 08:38:19;;;;;;;4.90;3.20;;;;;;;8.66;60.16;101146.27;107572;1251;107154;-60
2023/11/16 08:40:48;;;;;;;6.00;2.90;;;;;;;8.80;59.64;101144.86;107546;1251;97825;-61
2023/11/16 08:43:17;;;;;;;7.30;2.80;;;;;;;8.90;59.32;101143.90;107633;1251;97734;-60
2023/11/16 08:45:45;;;;;;;6.50;2.70;;;;;;;9.07;59.14;101141.90;107623;1251;111812;-62
2023/11/16 08:48:16;;;;;;;3.40;2.50;;;;;;;9.51;55.02;101138.03;107636;1254;108910;-60
2023/11/16 08:50:50;;;;;;;2.70;2.20;;;;;;;9.45;55.51;101142.80;107548;1256;108265;-60
2023/11/16 08:53:21;;;;;;;6.90;2.70;;;;;;;9.46;55.04;101139.17;107595;1251;97848;-60
2023/11/16 08:55:49;;;;;;;5.60;3.00;;;;;;;9.43;54.23;101138.11;107515;1253;97794;-60
2023/11/16 08:58:18;;;;;;;2.80;2.00;;;;;;;9.38;54.31;101136.89;107614;1253;111806;-60
2023/11/16 09:00:48;;;;;;;4.60;2.30;;;;;;;9.32;53.25;101134.14;107585;1255;109725;-60
2023/11/16 09:03:18;;;;;;;69.80;32.50;;;;;;;9.26;51.68;101129.92;107643;1254;108367;-59
2023/11/16 09:05:47;;;;;;;6.60;3.90;;;;;;;9.17;51.34;101133.81;107653;1253;97838;-60
2023/11/16 09:08:19;;;;;;;3.20;2.30;;;;;;;9.07;51.31;101136.18;107633;1252;97756;-60
2023/11/16 09:10:49;;;;;;;7.80;2.20;;;;;;;9.07;51.17;101125.80;107630;1251;110777;-59
2023/11/16 09:13:17;;;;;;;8.30;2.10;;;;;;;9.14;51.37;101138.55;107678;1257;108934;-60
2023/11/16 09:15:46;;;;;;;3.90;2.60;;;;;;;9.17;50.78;101141.33;107565;1253;107321;-61
2023/11/16 09:18:15;;;;;;;8.90;2.30;;;;;;;9.23;50.46;101136.25;107587;1254;97797;-60
2023/11/16 09:20:49;;;;;;;5.70;2.80;;;;;;;9.32;50.41;101135.73;107626;1254;97755;-60
2023/11/16 09:23:17;;;;;;;6.80;2.80;;;;;;;9.46;50.51;101140.95;107657;1253;112067;-59
2023/11/16 09:25:45;;;;;;;6.90;2.40;;;;;;;9.54;51.03;101144.42;107606;1253;109073;-59
2023/11/16 09:28:14;;;;;;;3.20;2.20;;;;;;;9.57;50.78;101146.73;107622;1256;107992;-62
2023/11/16 09:30:43;;;;;;;4.80;2.80;;;;;;;9.51;50.75;101149.81;107591;1254;97831;-60
2023/11/16 09:33:13;;;;;;;5.50;2.60;;;;;;;9.58;50.73;101144.27;107583;1254;98390;-60
2023/11/16 09:35:41;;;;;;;3.70;2.20;;;;;;;10.44;50.67;101144.44;107604;1254;111965;-61
2023/11/16 09:38:09;;;;;;;3.80;2.40;;;;;;;11.33;47.12;101133.64;107610;1254;109162;-62
2023/11/16 09:40:39;;;;;;;4.00;2.10;;;;;;;11.76;44.69;101136.72;107649;1254;107365;-60
2023/11/16 09:43:17;;;;;;;7.50;2.40;;;;;;;11.65;46.01;101147.39;107633;1255;97957;-62
2023/11/16 09:45:54;;;;;;;3.50;2.10;;;;;;;11.21;44.73;101149.01;107565;1251;97725;-60
2023/11/16 09:48:24;;;;;;;2.30;2.10;;;;;;;10.91;45.78;101151.91;107664;1251;112175;-60
2023/11/16 09:50:56;;;;;;;3.20;2.10;;;;;;;10.70;45.87;101150.95;107455;1254;110257;-60
2023/11/16 09:53:27;;;;;;;4.00;2.00;;;;;;;10.78;46.92;101152.46;107627;1254;108283;-60
2023/11/16 09:55:59;;;;;;;4.20;2.50;;;;;;;11.39;46.44;101151.38;107575;1253;97838;-60
2023/11/16 09:58:28;;;;;;;4.10;2.40;;;;;;;11.47;45.94;101148.79;107673;1256;99159;-60
2023/11/16 10:00:58;;;;;;;11.10;2.70;;;;;;;11.25;44.71;101151.50;107556;1256;111859;-59
2023/11/16 10:03:31;;;;;;;7.80;2.00;;;;;;;11.19;45.74;101150.26;107639;1253;110293;-61
2023/11/16 10:06:06;;;;;;;4.70;2.20;;;;;;;11.02;44.78;101144.28;107652;1251;107862;-61
2023/11/16 10:08:40;;;;;;;6.20;2.10;;;;;;;11.10;44.92;101136.65;107645;1251;97841;-61
2023/11/16 10:11:09;;;;;;;5.50;2.40;;;;;;;11.20;45.27;101136.66;107593;1254;97801;-60
2023/11/16 10:13:39;;;;;;;6.10;2.50;;;;;;;11.48;44.67;101135.56;107270;1256;474063;-60
2023/11/16 10:16:10;;;;;;;2.90;2.30;;;;;;;12.78;45.43;101132.49;107644;1254;110248;-61
2023/11/16 10:18:38;;;;;;;4.70;2.40;;;;;;;13.90;43.28;101134.45;107617;1253;107493;-60
2023/11/16 10:21:08;;;;;;;3.50;1.60;;;;;;;14.02;43.28;101134.23;107586;1254;97955;-60
2023/11/16 10:23:37;;;;;;;4.00;2.30;;;;;;;13.66;41.56;101143.26;107612;1253;97842;-60
2023/11/16 10:26:10;;;;;;;3.30;2.30;;;;;;;13.28;41.87;101142.09;107612;1251;112246;-61
2023/11/16 10:28:40;;;;;;;2.60;1.60;;;;;;;12.94;41.38;101135.77;107616;1252;109892;-60
2023/11/16 10:31:08;;;;;;;6.80;1.90;;;;;;;12.55;42.01;101135.01;107644;1253;108119;-61
2023/11/16 10:33:37;;;;;;;4.00;1.70;;;;;;;12.31;42.52;101131.06;107599;1251;97822;-60
2023/11/16 10:36:07;;;;;;;2.20;1.90;;;;;;;12.15;42.96;101130.42;107571;1253;98380;-62
2023/11/16 10:38:36;;;;;;;6.70;1.60;;;;;;;12.22;42.96;101122.06;107643;1251;110203;-61
2023/11/16 10:41:05;;;;;;;4.50;1.80;;;;;;;12.49;42.42;101128.10;107642;1251;110089;-61
2023/11/16 10:43:36;;;;;;;3.90;1.70;;;;;;;12.99;42.08;101122.98;107605;1256;108511;-61
2023/11/16 10:46:06;;;;;;;5.70;2.90;;;;;;;13.81;42.36;101122.89;107572;1256;98515;-61
2023/11/16 10:48:35;;;;;;;4.50;3.30;;;;;;;14.36;40.44;101118.42;107630;1253;97734;-61
2023/11/16 10:51:07;;;;;;;2.50;1.50;;;;;;;14.63;39.93;101113.94;107566;1254;111770;-61
2023/11/16 10:53:38;;;;;;;1.50;1.40;;;;;;;14.44;38.55;101119.11;107609;1251;109000;-60
2023/11/16 10:56:09;;;;;;;1.40;1.30;;;;;;;14.06;39.57;101123.23;107576;1256;107354;-60
2023/11/16 10:58:40;;;;;;;1.60;1.30;;;;;;;13.70;38.79;101123.60;107588;1253;97944;-60
2023/11/16 11:01:17;;;;;;;4.80;2.80;;;;;;;13.27;39.24;101131.23;107576;1253;99379;-61
2023/11/16 11:03:47;;;;;;;2.20;1.80;;;;;;;12.77;40.13;101138.35;107566;1254;112198;-63
2023/11/16 11:06:19;;;;;;;2.50;1.90;;;;;;;12.34;40.72;101136.34;107611;1251;109837;-60
2023/11/16 11:08:48;;;;;;;1.80;1.60;;;;;;;12.05;40.94;101135.11;107644;1253;107551;-60
2023/11/16 11:11:24;;;;;;;5.10;1.60;;;;;;;11.76;41.53;101136.95;107649;1252;97840;-59
2023/11/16 11:13:55;;;;;;;2.50;1.50;;;;;;;11.45;41.89;101139.38;107683;1251;97720;-61
2023/11/16 11:16:29;;;;;;;3.90;1.70;;;;;;;11.18;41.74;101135.98;107555;1253;111203;-60
2023/11/16 11:18:58;;;;;;;2.60;1.80;;;;;;;10.94;42.76;101136.39;107652;1253;109635;-60
2023/11/16 11:21:27;;;;;;;2.70;2.00;;;;;;;10.88;42.91;101136.31;107626;1252;108409;-60
2023/11/16 11:24:04;;;;;;;2.40;1.80;;;;;;;10.93;42.97;101134.34;107561;1251;97945;-61
2023/11/16 11:26:39;;;;;;;4.30;1.40;;;;;;;10.89;42.94;101141.30;107640;1251;97914;-60
2023/11/16 11:29:08;;;;;;;4.20;1.80;;;;;;;10.81;41.81;101138.18;107646;1254;112926;-60
2023/11/16 11:31:43;;;;;;;4.80;2.20;;;;;;;10.56;42.37;101151.33;107606;1253;110090;-60
2023/11/16 11:34:11;;;;;;;4.50;1.60;;;;;;;10.39;42.81;101153.61;107594;1253;107012;-60